Blue Galaxy — SWDA — position and weather

sailwx.info

Track history (hours):
 
Tides and Currents Weather Stations Pressure Air Temp Water Temp Dewpoint Dewpoint Depression Visibility Wind Speed Wind Dir Waves Ship Positions

Blue Galaxy

Last reported at 2018-Feb-17 20:35 UTC. Time now 2018-Feb-18 18:35 UTC.
Position N 37°33' E 023°44'.

Length 192 m; draft 6.7 m.

Type: Passenger vessel. MMSI: 239672000.

Date/timePositionNaut miles runAvg speedWind from/ knotsBaromVisibWave heightAir tempDewpointWater temp
2018-Feb-17 20:35N 37°33' E 023°44'219.5
2018-Feb-17 20:31N 37°35' E 023°43'1019.3
2018-Feb-17 20:01N 37°44' E 023°39'1019.1
2018-Feb-17 19:31N 37°53' E 023°37'4 7.7
2018-Feb-17 19:00N 37°57' E 023°38'0 0.0
2018-Feb-17 18:30N 37°57' E 023°38'0 0.0
2018-Feb-17 18:00N 37°57' E 023°38'0 0.0
2018-Feb-17 17:30N 37°57' E 023°38'0 0.0
2018-Feb-17 17:00N 37°57' E 023°38'0 0.0
2018-Feb-17 16:30N 37°57' E 023°38'0 0.0
2018-Feb-17 16:00N 37°57' E 023°38'0 0.0
2018-Feb-17 15:30N 37°57' E 023°38'0 0.0
2018-Feb-17 15:00N 37°57' E 023°38'0 0.0
2018-Feb-17 14:30N 37°57' E 023°38'0 0.0
2018-Feb-17 14:00N 37°57' E 023°38'0 0.0
2018-Feb-17 13:30N 37°57' E 023°38'0 0.0
2018-Feb-17 13:00N 37°57' E 023°38'0 0.0
2018-Feb-17 12:30N 37°57' E 023°38'0 0.0
2018-Feb-17 12:00N 37°57' E 023°38'0 0.0
2018-Feb-17 11:30N 37°57' E 023°38'0 0.0
2018-Feb-17 11:00N 37°57' E 023°38'0 0.0
2018-Feb-17 10:30N 37°57' E 023°38'0 0.0
2018-Feb-17 10:00N 37°57' E 023°38'0 0.0
2018-Feb-17 09:30N 37°57' E 023°38'0 0.0
2018-Feb-17 09:00N 37°57' E 023°38'0 0.0
2018-Feb-17 08:30N 37°57' E 023°38'0 0.0
2018-Feb-17 08:01N 37°57' E 023°38'0 0.0
2018-Feb-17 07:29N 37°57' E 023°38'0 0.0
2018-Feb-17 06:59N 37°57' E 023°38'0 0.0
2018-Feb-17 06:29N 37°57' E 023°38'0 0.0
2018-Feb-17 05:59N 37°57' E 023°38'0 0.0
2018-Feb-17 05:29N 37°57' E 023°38'0 0.0
2018-Feb-17 04:59N 37°57' E 023°38'0 0.0
2018-Feb-17 04:29N 37°57' E 023°38'0 0.0
2018-Feb-17 04:01N 37°57' E 023°38'3 6.7
2018-Feb-17 03:30N 37°53' E 023°38'1019.6
2018-Feb-17 03:00N 37°45' E 023°44'1019.4
2018-Feb-17 02:30N 37°35' E 023°47'3 0.1
2018-Feb-15 20:50N 37°33' E 023°44'619.4
2018-Feb-15 20:30N 37°39' E 023°42'1019.2
2018-Feb-15 20:00N 37°48' E 023°37'817.0
2018-Feb-15 19:30N 37°56' E 023°38'1 1.5
2018-Feb-15 19:00N 37°57' E 023°38'0 0.0
2018-Feb-15 18:29N 37°57' E 023°38'0 0.0
2018-Feb-15 17:59N 37°57' E 023°38'0 0.0
2018-Feb-15 17:29N 37°57' E 023°38'0 0.0
2018-Feb-15 16:59N 37°57' E 023°38'0 0.0
2018-Feb-15 16:29N 37°57' E 023°38'0 0.0
2018-Feb-15 15:59N 37°57' E 023°38'0 0.0
2018-Feb-15 15:29N 37°57' E 023°38'0 0.0
2018-Feb-15 14:59N 37°57' E 023°38'0 0.0
2018-Feb-15 14:29N 37°57' E 023°38'0 0.0
2018-Feb-15 13:59N 37°57' E 023°38'0 0.0
2018-Feb-15 13:29N 37°57' E 023°38'0 0.0
2018-Feb-15 12:59N 37°57' E 023°38'0 0.0
2018-Feb-15 12:26N 37°57' E 023°38'0 0.0
2018-Feb-15 12:01N 37°57' E 023°38'0 0.0
2018-Feb-15 11:30N 37°57' E 023°38'0 0.0
2018-Feb-15 11:00N 37°57' E 023°38'0 0.0
2018-Feb-15 10:30N 37°57' E 023°38'0 0.0
2018-Feb-15 10:00N 37°57' E 023°38'0 0.0
2018-Feb-15 09:30N 37°57' E 023°38'0 0.0
2018-Feb-15 09:00N 37°57' E 023°38'0 0.0
2018-Feb-15 08:30N 37°57' E 023°38'0 0.0
2018-Feb-15 08:00N 37°57' E 023°38'0 0.0
2018-Feb-15 07:30N 37°57' E 023°38'0 0.0
2018-Feb-15 07:00N 37°57' E 023°38'0 0.0
2018-Feb-15 06:24N 37°57' E 023°38'0 0.0
2018-Feb-15 05:42N 37°57' E 023°38'0 0.0
2018-Feb-15 05:24N 37°57' E 023°38'0 0.0
2018-Feb-15 04:54N 37°57' E 023°38'0 0.0
2018-Feb-15 04:30N 37°57' E 023°38'0 0.0
2018-Feb-15 04:00N 37°57' E 023°38'3 6.9
2018-Feb-15 03:30N 37°53' E 023°38'1020.0
2018-Feb-15 03:00N 37°45' E 023°44'1019.5
2018-Feb-15 02:30N 37°35' E 023°48'4 0.1
2018-Feb-13 20:42N 37°32' E 023°44'418.3
2018-Feb-13 20:29N 37°36' E 023°43'918.6
2018-Feb-13 20:00N 37°44' E 023°39'918.4
2018-Feb-13 19:30N 37°53' E 023°36'4 7.3
2018-Feb-13 19:00N 37°57' E 023°38'0 0.0
2018-Feb-13 18:30N 37°57' E 023°38'0 0.0
2018-Feb-13 18:00N 37°57' E 023°38'0 0.0
2018-Feb-13 17:30N 37°57' E 023°38'0 0.0
2018-Feb-13 17:00N 37°57' E 023°38'0 0.0
2018-Feb-13 16:30N 37°57' E 023°38'0 0.0
2018-Feb-13 16:00N 37°57' E 023°38'0 0.0
2018-Feb-13 15:30N 37°57' E 023°38'0 0.0
2018-Feb-13 15:00N 37°57' E 023°38'0 0.0
2018-Feb-13 14:30N 37°57' E 023°38'0 0.0
2018-Feb-13 14:00N 37°57' E 023°38'0 0.0
2018-Feb-13 13:30N 37°57' E 023°38'0 0.0
2018-Feb-13 13:00N 37°57' E 023°38'0 0.0
2018-Feb-13 12:30N 37°57' E 023°38'0 0.0
2018-Feb-13 12:00N 37°57' E 023°38'0 0.0
2018-Feb-13 11:30N 37°57' E 023°38'0 0.0
2018-Feb-13 11:00N 37°57' E 023°38'0 0.0
2018-Feb-13 10:30N 37°57' E 023°38'0 0.0
2018-Feb-13 10:00N 37°57' E 023°38'0 0.0
2018-Feb-13 09:28N 37°57' E 023°38'0 0.0
2018-Feb-13 08:58N 37°57' E 023°38'0 0.0
2018-Feb-13 08:28N 37°57' E 023°38'0 0.0
2018-Feb-13 07:58N 37°57' E 023°38'0 0.0
2018-Feb-13 07:28N 37°57' E 023°38'0 0.0
2018-Feb-13 06:58N 37°57' E 023°38'0 0.0
2018-Feb-13 06:28N 37°57' E 023°38'0 0.0
2018-Feb-13 05:58N 37°57' E 023°38'0 0.0
2018-Feb-13 05:28N 37°57' E 023°38'0 0.0
2018-Feb-13 05:00N 37°57' E 023°38'0 0.0
2018-Feb-13 04:29N 37°57' E 023°38'0 0.0
2018-Feb-13 03:59N 37°57' E 023°38'1 2.5
2018-Feb-13 03:31N 37°56' E 023°37'917.7
2018-Feb-13 03:00N 37°48' E 023°41'918.8
2018-Feb-13 02:31N 37°39' E 023°46'1019.0
2018-Feb-13 01:59N 37°29' E 023°48'4 0.1
2018-Feb-11 20:36N 37°32' E 023°44'219.5
2018-Feb-11 20:30N 37°34' E 023°44'919.2
2018-Feb-11 20:00N 37°43' E 023°40'918.9
2018-Feb-11 19:30N 37°52' E 023°37'5 9.3
2018-Feb-11 19:00N 37°57' E 023°38'0 0.0
2018-Feb-11 18:29N 37°57' E 023°38'0 0.0
2018-Feb-11 17:59N 37°57' E 023°38'0 0.0
2018-Feb-11 17:29N 37°57' E 023°38'0 0.0
2018-Feb-11 16:59N 37°57' E 023°38'0 0.0
2018-Feb-11 16:30N 37°57' E 023°38'0 0.0
2018-Feb-11 15:59N 37°57' E 023°38'0 0.0
2018-Feb-11 15:29N 37°57' E 023°38'0 0.0
2018-Feb-11 14:59N 37°57' E 023°38'0 0.0
2018-Feb-11 14:29N 37°57' E 023°38'0 0.0
2018-Feb-11 13:59N 37°57' E 023°38'0 0.0
2018-Feb-11 13:29N 37°57' E 023°38'0 0.0
2018-Feb-11 12:59N 37°57' E 023°38'0 0.0
2018-Feb-11 12:29N 37°57' E 023°38'0 0.0
2018-Feb-11 11:59N 37°57' E 023°38'0 0.0
2018-Feb-11 11:29N 37°57' E 023°38'0 0.0
2018-Feb-11 10:59N 37°57' E 023°38'0 0.0
2018-Feb-11 10:29N 37°57' E 023°38'0 0.0
2018-Feb-11 09:59N 37°57' E 023°38'0 0.0
2018-Feb-11 09:29N 37°57' E 023°38'0 0.0
2018-Feb-11 08:59N 37°57' E 023°38'0 0.0
2018-Feb-11 08:29N 37°57' E 023°38'0 0.0
2018-Feb-11 07:59N 37°57' E 023°38'0 0.0
2018-Feb-11 07:29N 37°57' E 023°38'0 0.0
2018-Feb-11 06:59N 37°57' E 023°38'0 0.0
2018-Feb-11 06:29N 37°57' E 023°38'0 0.0
2018-Feb-11 05:59N 37°57' E 023°38'0 0.0
2018-Feb-11 05:29N 37°57' E 023°38'0 0.0
2018-Feb-11 04:59N 37°57' E 023°38'0 0.1
2018-Feb-11 04:30N 37°57' E 023°38'611.3
2018-Feb-11 04:00N 37°51' E 023°39'1019.9
2018-Feb-11 03:30N 37°42' E 023°44'1019.4
2018-Feb-11 03:00N 37°33' E 023°47'1019.8
2018-Feb-11 02:29N 37°22' E 023°49'18 0.6
2018-Feb-09 20:30N 37°40' E 023°42'815.1
2018-Feb-09 20:00N 37°47' E 023°38'714.7
2018-Feb-09 19:31N 37°54' E 023°37'3 6.6
2018-Feb-09 19:01N 37°57' E 023°38'0 0.0
2018-Feb-09 03:30N 37°57' E 023°38'510.0
2018-Feb-09 03:00N 37°52' E 023°39'1019.2
2018-Feb-09 02:30N 37°43' E 023°44'  
Track history (hours):
 
Tides and Currents Weather Stations Pressure Air Temp Water Temp Dewpoint Dewpoint Depression Visibility Wind Speed Wind Dir Waves Ship Positions

Blue Galaxy

Last reported at 2018-Feb-17 20:35 UTC. Time now 2018-Feb-18 18:35 UTC.
Position N 37°33' E 023°44'.

Length 192 m; draft 6.7 m.

Type: Passenger vessel. MMSI: 239672000.

Date/timePositionNaut miles runAvg speedWind from/ knotsBaromVisibWave heightAir tempDewpointWater temp
2018-Feb-17 20:35N 37°33' E 023°44'219.5
2018-Feb-17 20:31N 37°35' E 023°43'1019.3
2018-Feb-17 20:01N 37°44' E 023°39'1019.1
2018-Feb-17 19:31N 37°53' E 023°37'4 7.7
2018-Feb-17 19:00N 37°57' E 023°38'0 0.0
2018-Feb-17 18:30N 37°57' E 023°38'0 0.0
2018-Feb-17 18:00N 37°57' E 023°38'0 0.0
2018-Feb-17 17:30N 37°57' E 023°38'0 0.0
2018-Feb-17 17:00N 37°57' E 023°38'0 0.0
2018-Feb-17 16:30N 37°57' E 023°38'0 0.0
2018-Feb-17 16:00N 37°57' E 023°38'0 0.0
2018-Feb-17 15:30N 37°57' E 023°38'0 0.0
2018-Feb-17 15:00N 37°57' E 023°38'0 0.0
2018-Feb-17 14:30N 37°57' E 023°38'0 0.0
2018-Feb-17 14:00N 37°57' E 023°38'0 0.0
2018-Feb-17 13:30N 37°57' E 023°38'0 0.0
2018-Feb-17 13:00N 37°57' E 023°38'0 0.0
2018-Feb-17 12:30N 37°57' E 023°38'0 0.0
2018-Feb-17 12:00N 37°57' E 023°38'0 0.0
2018-Feb-17 11:30N 37°57' E 023°38'0 0.0
2018-Feb-17 11:00N 37°57' E 023°38'0 0.0
2018-Feb-17 10:30N 37°57' E 023°38'0 0.0
2018-Feb-17 10:00N 37°57' E 023°38'0 0.0
2018-Feb-17 09:30N 37°57' E 023°38'0 0.0
2018-Feb-17 09:00N 37°57' E 023°38'0 0.0
2018-Feb-17 08:30N 37°57' E 023°38'0 0.0
2018-Feb-17 08:01N 37°57' E 023°38'0 0.0
2018-Feb-17 07:29N 37°57' E 023°38'0 0.0
2018-Feb-17 06:59N 37°57' E 023°38'0 0.0
2018-Feb-17 06:29N 37°57' E 023°38'0 0.0
2018-Feb-17 05:59N 37°57' E 023°38'0 0.0
2018-Feb-17 05:29N 37°57' E 023°38'0 0.0
2018-Feb-17 04:59N 37°57' E 023°38'0 0.0
2018-Feb-17 04:29N 37°57' E 023°38'0 0.0
2018-Feb-17 04:01N 37°57' E 023°38'3 6.7
2018-Feb-17 03:30N 37°53' E 023°38'1019.6
2018-Feb-17 03:00N 37°45' E 023°44'1019.4
2018-Feb-17 02:30N 37°35' E 023°47'3 0.1
2018-Feb-15 20:50N 37°33' E 023°44'619.4
2018-Feb-15 20:30N 37°39' E 023°42'1019.2
2018-Feb-15 20:00N 37°48' E 023°37'817.0
2018-Feb-15 19:30N 37°56' E 023°38'1 1.5
2018-Feb-15 19:00N 37°57' E 023°38'0 0.0
2018-Feb-15 18:29N 37°57' E 023°38'0 0.0
2018-Feb-15 17:59N 37°57' E 023°38'0 0.0
2018-Feb-15 17:29N 37°57' E 023°38'0 0.0
2018-Feb-15 16:59N 37°57' E 023°38'0 0.0
2018-Feb-15 16:29N 37°57' E 023°38'0 0.0
2018-Feb-15 15:59N 37°57' E 023°38'0 0.0
2018-Feb-15 15:29N 37°57' E 023°38'0 0.0
2018-Feb-15 14:59N 37°57' E 023°38'0 0.0
2018-Feb-15 14:29N 37°57' E 023°38'0 0.0
2018-Feb-15 13:59N 37°57' E 023°38'0 0.0
2018-Feb-15 13:29N 37°57' E 023°38'0 0.0
2018-Feb-15 12:59N 37°57' E 023°38'0 0.0
2018-Feb-15 12:26N 37°57' E 023°38'0 0.0
2018-Feb-15 12:01N 37°57' E 023°38'0 0.0
2018-Feb-15 11:30N 37°57' E 023°38'0 0.0
2018-Feb-15 11:00N 37°57' E 023°38'0 0.0
2018-Feb-15 10:30N 37°57' E 023°38'0 0.0
2018-Feb-15 10:00N 37°57' E 023°38'0 0.0
2018-Feb-15 09:30N 37°57' E 023°38'0 0.0
2018-Feb-15 09:00N 37°57' E 023°38'0 0.0
2018-Feb-15 08:30N 37°57' E 023°38'0 0.0
2018-Feb-15 08:00N 37°57' E 023°38'0 0.0
2018-Feb-15 07:30N 37°57' E 023°38'0 0.0
2018-Feb-15 07:00N 37°57' E 023°38'0 0.0
2018-Feb-15 06:24N 37°57' E 023°38'0 0.0
2018-Feb-15 05:42N 37°57' E 023°38'0 0.0
2018-Feb-15 05:24N 37°57' E 023°38'0 0.0
2018-Feb-15 04:54N 37°57' E 023°38'0 0.0
2018-Feb-15 04:30N 37°57' E 023°38'0 0.0
2018-Feb-15 04:00N 37°57' E 023°38'3 6.9
2018-Feb-15 03:30N 37°53' E 023°38'1020.0
2018-Feb-15 03:00N 37°45' E 023°44'1019.5
2018-Feb-15 02:30N 37°35' E 023°48'4 0.1
2018-Feb-13 20:42N 37°32' E 023°44'418.3
2018-Feb-13 20:29N 37°36' E 023°43'918.6
2018-Feb-13 20:00N 37°44' E 023°39'918.4
2018-Feb-13 19:30N 37°53' E 023°36'4 7.3
2018-Feb-13 19:00N 37°57' E 023°38'0 0.0
2018-Feb-13 18:30N 37°57' E 023°38'0 0.0
2018-Feb-13 18:00N 37°57' E 023°38'0 0.0
2018-Feb-13 17:30N 37°57' E 023°38'0 0.0
2018-Feb-13 17:00N 37°57' E 023°38'0 0.0
2018-Feb-13 16:30N 37°57' E 023°38'0 0.0
2018-Feb-13 16:00N 37°57' E 023°38'0 0.0
2018-Feb-13 15:30N 37°57' E 023°38'0 0.0
2018-Feb-13 15:00N 37°57' E 023°38'0 0.0
2018-Feb-13 14:30N 37°57' E 023°38'0 0.0
2018-Feb-13 14:00N 37°57' E 023°38'0 0.0
2018-Feb-13 13:30N 37°57' E 023°38'0 0.0
2018-Feb-13 13:00N 37°57' E 023°38'0 0.0
2018-Feb-13 12:30N 37°57' E 023°38'0 0.0
2018-Feb-13 12:00N 37°57' E 023°38'0 0.0
2018-Feb-13 11:30N 37°57' E 023°38'0 0.0
2018-Feb-13 11:00N 37°57' E 023°38'0 0.0
2018-Feb-13 10:30N 37°57' E 023°38'0 0.0
2018-Feb-13 10:00N 37°57' E 023°38'0 0.0
2018-Feb-13 09:28N 37°57' E 023°38'0 0.0
2018-Feb-13 08:58N 37°57' E 023°38'0 0.0
2018-Feb-13 08:28N 37°57' E 023°38'0 0.0
2018-Feb-13 07:58N 37°57' E 023°38'0 0.0
2018-Feb-13 07:28N 37°57' E 023°38'0 0.0
2018-Feb-13 06:58N 37°57' E 023°38'0 0.0
2018-Feb-13 06:28N 37°57' E 023°38'0 0.0
2018-Feb-13 05:58N 37°57' E 023°38'0 0.0
2018-Feb-13 05:28N 37°57' E 023°38'0 0.0
2018-Feb-13 05:00N 37°57' E 023°38'0 0.0
2018-Feb-13 04:29N 37°57' E 023°38'0 0.0
2018-Feb-13 03:59N 37°57' E 023°38'1 2.5
2018-Feb-13 03:31N 37°56' E 023°37'917.7
2018-Feb-13 03:00N 37°48' E 023°41'918.8
2018-Feb-13 02:31N 37°39' E 023°46'1019.0
2018-Feb-13 01:59N 37°29' E 023°48'4 0.1
2018-Feb-11 20:36N 37°32' E 023°44'219.5
2018-Feb-11 20:30N 37°34' E 023°44'919.2
2018-Feb-11 20:00N 37°43' E 023°40'918.9
2018-Feb-11 19:30N 37°52' E 023°37'5 9.3
2018-Feb-11 19:00N 37°57' E 023°38'0 0.0
2018-Feb-11 18:29N 37°57' E 023°38'0 0.0
2018-Feb-11 17:59N 37°57' E 023°38'0 0.0
2018-Feb-11 17:29N 37°57' E 023°38'0 0.0
2018-Feb-11 16:59N 37°57' E 023°38'0 0.0
2018-Feb-11 16:30N 37°57' E 023°38'0 0.0
2018-Feb-11 15:59N 37°57' E 023°38'0 0.0
2018-Feb-11 15:29N 37°57' E 023°38'0 0.0
2018-Feb-11 14:59N 37°57' E 023°38'0 0.0
2018-Feb-11 14:29N 37°57' E 023°38'0 0.0
2018-Feb-11 13:59N 37°57' E 023°38'0 0.0
2018-Feb-11 13:29N 37°57' E 023°38'0 0.0
2018-Feb-11 12:59N 37°57' E 023°38'0 0.0
2018-Feb-11 12:29N 37°57' E 023°38'0 0.0
2018-Feb-11 11:59N 37°57' E 023°38'0 0.0
2018-Feb-11 11:29N 37°57' E 023°38'0 0.0
2018-Feb-11 10:59N 37°57' E 023°38'0 0.0
2018-Feb-11 10:29N 37°57' E 023°38'0 0.0
2018-Feb-11 09:59N 37°57' E 023°38'0 0.0
2018-Feb-11 09:29N 37°57' E 023°38'0 0.0
2018-Feb-11 08:59N 37°57' E 023°38'0 0.0
2018-Feb-11 08:29N 37°57' E 023°38'0 0.0
2018-Feb-11 07:59N 37°57' E 023°38'0 0.0
2018-Feb-11 07:29N 37°57' E 023°38'0 0.0
2018-Feb-11 06:59N 37°57' E 023°38'0 0.0
2018-Feb-11 06:29N 37°57' E 023°38'0 0.0
2018-Feb-11 05:59N 37°57' E 023°38'0 0.0
2018-Feb-11 05:29N 37°57' E 023°38'0 0.0
2018-Feb-11 04:59N 37°57' E 023°38'0 0.1
2018-Feb-11 04:30N 37°57' E 023°38'611.3
2018-Feb-11 04:00N 37°51' E 023°39'1019.9
2018-Feb-11 03:30N 37°42' E 023°44'1019.4
2018-Feb-11 03:00N 37°33' E 023°47'1019.8
2018-Feb-11 02:29N 37°22' E 023°49'18 0.6
2018-Feb-09 20:30N 37°40' E 023°42'815.1
2018-Feb-09 20:00N 37°47' E 023°38'714.7
2018-Feb-09 19:31N 37°54' E 023°37'3 6.6
2018-Feb-09 19:01N 37°57' E 023°38'0 0.0
2018-Feb-09 03:30N 37°57' E 023°38'510.0
2018-Feb-09 03:00N 37°52' E 023°39'1019.2
2018-Feb-09 02:30N 37°43' E 023°44'  

Dump ship's entire track history